createdAt,value
2023-02-02T03:25:49.535Z,18.90
2023-02-02T03:28:20.510Z,16.52
2023-02-02T03:30:52.633Z,17.92
2023-02-02T03:33:23.436Z,13.68
2023-02-02T03:35:53.342Z,15.50
2023-02-02T03:38:22.764Z,15.68
2023-02-02T03:40:52.937Z,17.75
2023-02-02T03:43:24.459Z,21.10
2023-02-02T03:45:58.352Z,17.92
2023-02-02T03:48:28.522Z,16.90
2023-02-02T03:50:58.738Z,16.30
2023-02-02T03:53:28.188Z,17.73
2023-02-02T03:55:57.656Z,16.95
2023-02-02T03:58:27.104Z,15.58
2023-02-02T04:01:08.618Z,17.17
2023-02-02T04:03:38.174Z,15.85
2023-02-02T04:06:08.227Z,19.35
2023-02-02T04:08:40.041Z,16.05
2023-02-02T04:11:12.831Z,18.27
2023-02-02T04:13:44.596Z,15.98
2023-02-02T04:16:14.335Z,22.98
2023-02-02T04:18:43.818Z,17.45
2023-02-02T04:21:13.399Z,17.57
2023-02-02T04:23:42.839Z,15.08
2023-02-02T04:26:12.331Z,20.08
2023-02-02T04:28:42.428Z,20.33
2023-02-02T04:31:11.951Z,28.05
2023-02-02T04:33:41.481Z,15.13
2023-02-02T04:36:11.099Z,15.15
2023-02-02T04:38:40.533Z,16.90
2023-02-02T04:41:14.673Z,17.48
2023-02-02T04:43:44.277Z,17.37
2023-02-02T04:46:14.840Z,18.50
2023-02-02T04:48:44.607Z,17.20
2023-02-02T04:51:16.363Z,16.90
2023-02-02T04:53:46.074Z,19.33
2023-02-02T04:56:19.931Z,16.93
2023-02-02T04:58:49.449Z,16.57
2023-02-02T05:01:20.935Z,19.60
2023-02-02T05:03:51.840Z,16.83
2023-02-02T05:06:21.344Z,17.25
2023-02-02T05:08:50.842Z,15.68
2023-02-02T05:11:22.903Z,18.65
2023-02-02T05:13:56.313Z,17.80
2023-02-02T05:16:28.811Z,17.25
2023-02-02T05:18:59.852Z,15.93
2023-02-02T05:21:30.198Z,15.68
2023-02-02T05:24:01.481Z,16.35
2023-02-02T05:26:31.519Z,20.80
2023-02-02T05:29:00.934Z,17.90
2023-02-02T05:31:32.498Z,13.83
2023-02-02T05:34:01.969Z,15.63
2023-02-02T05:36:31.395Z,17.75
2023-02-02T05:39:01.156Z,16.77
2023-02-02T05:41:30.595Z,18.70
2023-02-02T05:44:03.435Z,16.82
2023-02-02T05:46:33.364Z,17.40
2023-02-02T05:49:04.414Z,17.40
2023-02-02T05:51:37.132Z,18.82
2023-02-02T05:54:06.769Z,20.70
2023-02-02T05:56:36.266Z,18.85
2023-02-02T05:59:07.430Z,19.87
2023-02-02T06:01:38.890Z,17.30
2023-02-02T06:04:08.400Z,20.20
2023-02-02T06:06:39.489Z,19.75
2023-02-02T06:09:10.326Z,16.80
2023-02-02T06:11:39.897Z,17.50
2023-02-02T06:14:09.331Z,22.17
2023-02-02T06:16:39.670Z,20.68
2023-02-02T06:19:09.095Z,18.48
2023-02-02T06:21:38.532Z,17.45
2023-02-02T06:24:08.355Z,17.77
2023-02-02T06:26:38.247Z,16.93
2023-02-02T06:29:08.268Z,19.62
2023-02-02T06:31:37.766Z,17.45
2023-02-02T06:34:08.792Z,20.02
2023-02-02T06:36:38.228Z,20.52
2023-02-02T06:39:08.784Z,20.15
2023-02-02T06:41:38.972Z,20.05
2023-02-02T06:44:08.510Z,20.17
2023-02-02T06:46:38.012Z,21.45
2023-02-02T06:49:07.510Z,20.17
2023-02-02T06:51:37.768Z,18.95
2023-02-02T06:54:07.319Z,19.05
2023-02-02T06:56:36.833Z,21.68
2023-02-02T06:59:06.675Z,18.30
2023-02-02T07:01:36.437Z,20.25
2023-02-02T07:04:05.982Z,18.77
2023-02-02T07:06:35.513Z,17.02
2023-02-02T07:09:05.077Z,14.60
2023-02-02T07:11:38.210Z,21.45
2023-02-02T07:16:36.523Z,16.67
2023-02-02T07:19:05.989Z,19.65
2023-02-02T07:21:38.795Z,14.63
2023-02-02T07:24:08.822Z,17.75
2023-02-02T07:26:39.207Z,20.75
2023-02-02T07:29:13.275Z,15.67
2023-02-02T07:31:42.946Z,17.20
2023-02-02T07:34:12.882Z,21.25
2023-02-02T07:36:42.487Z,16.42
2023-02-02T07:39:13.256Z,18.62
2023-02-02T07:41:46.813Z,19.27
2023-02-02T07:44:18.205Z,17.92
2023-02-02T07:46:49.457Z,20.10
2023-02-02T07:49:20.838Z,18.57
2023-02-02T07:51:50.441Z,19.50
2023-02-02T07:54:19.873Z,18.95
2023-02-02T07:56:49.318Z,25.00
2023-02-02T07:59:18.960Z,28.02
2023-02-02T08:01:48.930Z,26.62
2023-02-02T08:04:19.382Z,33.67
2023-02-02T08:06:49.010Z,34.58
2023-02-02T08:09:18.450Z,28.60
2023-02-02T08:11:49.054Z,26.57
2023-02-02T08:14:19.053Z,31.20
2023-02-02T08:16:48.484Z,25.27
2023-02-02T08:19:17.920Z,23.30
2023-02-02T08:21:47.502Z,25.17
2023-02-02T08:24:16.942Z,25.97
2023-02-02T08:26:46.467Z,21.77
2023-02-02T08:29:17.927Z,23.53
2023-02-02T08:31:47.485Z,24.82
2023-02-02T08:34:17.026Z,18.50
2023-02-02T08:36:46.528Z,20.30
2023-02-02T08:39:16.135Z,26.23
2023-02-02T08:41:45.657Z,21.35
2023-02-02T08:44:17.094Z,20.77
2023-02-02T08:46:46.648Z,19.95
2023-02-02T08:49:16.773Z,18.85
2023-02-02T08:51:46.680Z,18.52
2023-02-02T08:54:16.193Z,24.77
2023-02-02T08:56:46.377Z,24.02
2023-02-02T08:59:15.962Z,20.13
2023-02-02T09:01:45.395Z,18.37
2023-02-02T09:04:18.500Z,21.95
2023-02-02T09:06:49.406Z,20.00
2023-02-02T09:09:20.548Z,17.98
2023-02-02T09:11:50.006Z,18.95
2023-02-02T09:14:19.740Z,18.37
2023-02-02T09:16:49.348Z,23.27
2023-02-02T09:19:18.832Z,19.32
2023-02-02T09:21:52.839Z,21.30
2023-02-02T09:24:22.261Z,21.15
2023-02-02T09:26:52.328Z,21.27
2023-02-02T09:29:21.779Z,21.90
2023-02-02T09:31:51.322Z,24.18
2023-02-02T09:34:20.855Z,21.57
2023-02-02T09:36:51.071Z,24.23
2023-02-02T09:39:20.823Z,24.35
2023-02-02T09:42:02.687Z,22.05
2023-02-02T09:44:38.105Z,22.87
2023-02-02T09:47:19.698Z,21.33
2023-02-02T09:50:09.317Z,21.60
2023-02-02T09:52:45.167Z,13.40
2023-02-02T09:55:32.510Z,18.32
2023-02-02T09:58:05.398Z,18.90
2023-02-02T10:03:13.869Z,17.77
2023-02-02T10:05:58.304Z,13.18
2023-02-02T10:08:34.996Z,11.90
2023-02-02T10:11:06.280Z,13.32
2023-02-02T10:13:38.807Z,10.72
2023-02-02T10:16:13.921Z,11.73
2023-02-02T10:19:07.817Z,14.60
2023-02-02T10:21:46.035Z,16.42
2023-02-02T10:24:22.026Z,11.73
2023-02-02T10:26:54.573Z,15.15
2023-02-02T10:32:23.607Z,15.05
2023-02-02T10:35:23.200Z,14.38
2023-02-02T10:37:58.764Z,10.75
2023-02-02T10:40:57.740Z,13.90
2023-02-02T10:43:52.393Z,12.25
2023-02-02T10:46:28.055Z,19.85
2023-02-02T10:49:03.909Z,16.62
2023-02-02T10:51:33.863Z,14.45
2023-02-02T10:54:08.247Z,16.07
2023-02-02T10:56:41.055Z,12.58
2023-02-02T10:59:16.245Z,13.50
2023-02-02T11:01:48.808Z,11.60
2023-02-02T11:07:05.788Z,18.00
2023-02-02T11:09:38.511Z,16.97
2023-02-02T11:12:34.091Z,9.93
2023-02-02T11:15:08.427Z,14.13
2023-02-02T11:17:38.626Z,10.45
2023-02-02T11:20:26.997Z,13.52
2023-02-02T11:23:05.165Z,11.95
2023-02-02T11:25:37.210Z,12.47
2023-02-02T11:28:25.043Z,10.70
2023-02-02T11:30:55.288Z,11.78
2023-02-02T11:33:34.537Z,13.58
2023-02-02T11:36:07.264Z,15.15
2023-02-02T11:38:37.455Z,10.18
2023-02-02T11:41:11.273Z,11.03
2023-02-02T11:43:55.899Z,10.20
2023-02-02T11:46:31.080Z,11.30
2023-02-02T11:49:09.592Z,9.35
2023-02-02T11:51:39.154Z,9.13
2023-02-02T11:54:17.639Z,11.93
2023-02-02T11:56:53.123Z,11.53
2023-02-02T11:59:31.835Z,12.10
2023-02-02T12:04:50.747Z,10.13
2023-02-02T12:07:32.360Z,17.23
2023-02-02T12:10:09.388Z,8.43
2023-02-02T12:12:45.508Z,10.10
2023-02-02T12:15:35.871Z,12.95
2023-02-02T12:18:29.062Z,6.92
2023-02-02T12:21:19.919Z,15.50
2023-02-02T12:24:01.403Z,10.13
2023-02-02T12:26:33.633Z,12.13
2023-02-02T12:29:28.929Z,9.00
2023-02-02T12:32:07.844Z,12.93
2023-02-02T12:34:48.893Z,9.95
2023-02-02T12:37:38.030Z,11.88
2023-02-02T12:40:31.668Z,12.18
2023-02-02T12:43:13.597Z,15.03
2023-02-02T12:48:41.817Z,11.12
2023-02-02T12:51:17.116Z,10.43
2023-02-02T12:54:32.663Z,12.58
2023-02-02T12:56:49.100Z,16.27
2023-02-02T12:59:30.221Z,11.53
2023-02-02T13:02:14.690Z,9.55
2023-02-02T13:04:53.754Z,13.55
2023-02-02T13:07:44.329Z,11.22
2023-02-02T13:10:29.170Z,9.80
2023-02-02T13:13:04.201Z,13.30
2023-02-02T13:15:37.424Z,10.40
2023-02-02T13:18:30.928Z,14.40
2023-02-02T13:21:10.251Z,12.43
2023-02-02T13:23:45.732Z,11.50
2023-02-02T13:26:46.012Z,12.37
2023-02-02T13:29:47.250Z,11.10
2023-02-02T13:32:22.430Z,16.32
2023-02-02T13:35:00.525Z,9.65
2023-02-02T13:37:45.159Z,12.70
2023-02-02T13:40:30.087Z,9.48
2023-02-02T13:43:14.673Z,15.00
2023-02-02T13:46:05.333Z,10.53
2023-02-02T13:49:14.648Z,9.05
2023-02-02T13:52:09.018Z,13.05
2023-02-02T13:54:45.959Z,12.30
2023-02-02T13:57:52.308Z,15.58
2023-02-02T14:00:25.192Z,11.38
2023-02-02T14:05:37.758Z,17.37
2023-02-02T14:08:10.534Z,13.20
2023-02-02T14:13:34.022Z,12.53
2023-02-02T14:16:06.682Z,8.75
2023-02-02T14:18:55.608Z,11.80
2023-02-02T14:21:36.820Z,10.68
2023-02-02T14:24:24.942Z,14.20
2023-02-02T14:27:12.618Z,9.88
2023-02-02T14:29:53.443Z,11.30
2023-02-02T14:32:29.651Z,9.03
2023-02-02T14:35:19.046Z,11.88
2023-02-02T14:37:55.476Z,13.98
2023-02-02T14:40:30.752Z,10.28
2023-02-02T14:43:33.355Z,15.75
2023-02-02T14:46:17.929Z,10.87
2023-02-02T14:48:58.936Z,12.40
2023-02-02T14:51:38.325Z,11.93
2023-02-02T14:54:10.480Z,15.15
2023-02-02T14:56:47.504Z,15.83
2023-02-02T14:59:25.569Z,12.37
2023-02-02T15:02:19.187Z,14.80
2023-02-02T15:07:29.651Z,18.48
2023-02-02T15:09:59.249Z,12.93
2023-02-02T15:12:43.397Z,10.85
2023-02-02T15:15:22.762Z,11.80
2023-02-02T15:18:08.040Z,16.12
2023-02-02T15:20:44.632Z,10.10
2023-02-02T15:23:41.450Z,9.15
2023-02-02T15:26:14.553Z,15.53
2023-02-02T15:31:32.029Z,20.92
2023-02-02T15:34:10.242Z,11.97
2023-02-02T15:36:42.721Z,13.72
2023-02-02T15:39:21.055Z,20.95
2023-02-02T15:41:54.913Z,16.42
2023-02-02T15:44:30.138Z,11.33
2023-02-02T15:46:59.935Z,10.78
2023-02-02T15:49:36.014Z,15.80
2023-02-02T15:52:21.298Z,14.85
2023-02-02T15:54:59.460Z,18.10
2023-02-02T15:57:37.633Z,13.35
2023-02-02T16:00:24.219Z,13.60
2023-02-02T16:02:57.088Z,10.58
2023-02-02T16:05:44.658Z,12.85
2023-02-02T16:08:29.185Z,14.10
2023-02-02T16:11:07.607Z,11.93
2023-02-02T16:13:38.450Z,13.45
2023-02-02T16:16:19.410Z,14.78
2023-02-02T16:18:49.036Z,10.45
2023-02-02T16:21:21.479Z,9.90
2023-02-02T16:23:52.133Z,10.58
2023-02-02T16:26:25.013Z,13.13
2023-02-02T16:28:55.495Z,14.20
2023-02-02T16:31:27.908Z,9.60
2023-02-02T16:33:59.126Z,15.65
2023-02-02T16:36:31.024Z,12.25
2023-02-02T16:39:01.689Z,9.40
2023-02-02T16:41:38.340Z,12.20
2023-02-02T16:44:30.910Z,8.33
2023-02-02T16:47:01.772Z,16.60
2023-02-02T16:49:32.049Z,10.53
2023-02-02T16:52:18.906Z,18.48
2023-02-02T16:54:56.840Z,11.50
2023-02-02T16:57:29.421Z,14.15
2023-02-02T17:00:06.603Z,15.43
2023-02-02T17:02:42.159Z,46.67
2023-02-02T17:05:29.692Z,129.65
2023-02-02T17:08:03.604Z,66.28
2023-02-02T17:10:36.241Z,30.95
2023-02-02T17:13:14.750Z,27.62
2023-02-02T17:15:45.707Z,23.57
2023-02-02T17:18:15.418Z,22.82
2023-02-02T17:20:44.930Z,22.70
2023-02-02T17:23:17.478Z,19.52
2023-02-02T17:25:48.004Z,21.05
2023-02-02T17:28:29.217Z,23.90
2023-02-02T17:31:01.628Z,21.73
2023-02-02T17:33:34.357Z,27.60
2023-02-02T17:36:05.251Z,24.87
2023-02-02T17:38:36.407Z,25.20
2023-02-02T17:41:06.641Z,31.62
2023-02-02T17:43:36.252Z,34.20
2023-02-02T17:46:06.913Z,28.83
2023-02-02T17:48:38.249Z,27.95
2023-02-02T17:51:10.815Z,28.90
2023-02-02T17:53:40.873Z,22.48
2023-02-02T17:56:10.263Z,22.37
2023-02-02T17:58:39.662Z,24.20
2023-02-02T18:01:12.316Z,23.75
2023-02-02T18:06:07.368Z,23.32
2023-02-02T18:08:37.752Z,26.73
2023-02-02T18:11:26.486Z,21.10
2023-02-02T18:13:55.944Z,28.00
2023-02-02T18:16:25.400Z,27.30
2023-02-02T18:18:56.418Z,25.00
2023-02-02T18:21:30.764Z,30.27
2023-02-02T18:24:00.241Z,41.70
2023-02-02T18:26:31.353Z,49.95
2023-02-02T18:29:01.070Z,45.73
2023-02-02T18:31:31.520Z,46.80
2023-02-02T18:34:01.149Z,45.12
2023-02-02T18:36:30.546Z,41.88
2023-02-02T18:39:00.489Z,38.05
2023-02-02T18:41:29.891Z,47.93
2023-02-02T18:43:59.369Z,41.35
2023-02-02T18:46:29.230Z,48.95
2023-02-02T18:48:58.672Z,41.68
2023-02-02T18:51:28.099Z,40.63
2023-02-02T18:53:59.177Z,34.67
2023-02-02T18:56:30.233Z,36.95
2023-02-02T18:58:59.815Z,40.28
2023-02-02T19:01:30.503Z,43.00
2023-02-02T19:04:00.799Z,40.63
2023-02-02T19:06:48.376Z,40.25
2023-02-02T19:09:17.845Z,47.30
2023-02-02T19:11:54.109Z,38.90
2023-02-02T19:14:26.729Z,39.18
2023-02-02T19:17:02.498Z,41.48
2023-02-02T19:19:34.967Z,39.25
2023-02-02T19:22:27.427Z,48.45
2023-02-02T19:24:59.124Z,50.95
2023-02-02T19:27:28.728Z,55.60
2023-02-02T19:30:06.006Z,55.70
2023-02-02T19:32:35.143Z,55.35
2023-02-02T19:35:08.514Z,52.40
2023-02-02T19:37:42.689Z,54.77
2023-02-02T19:40:16.494Z,54.42
2023-02-02T19:43:01.364Z,51.83
2023-02-02T19:45:33.825Z,51.75
2023-02-02T19:48:09.556Z,47.93
2023-02-02T19:50:41.970Z,46.13
2023-02-02T19:53:23.495Z,51.08
2023-02-02T19:55:54.076Z,52.48
2023-02-02T19:58:28.216Z,43.45
2023-02-02T20:00:59.305Z,50.58
2023-02-02T20:03:31.887Z,46.68
2023-02-02T20:06:04.089Z,46.02
2023-02-02T20:08:41.578Z,57.90
2023-02-02T20:11:37.473Z,59.77
2023-02-02T20:14:22.247Z,58.42
2023-02-02T20:16:54.216Z,49.90
2023-02-02T20:19:26.285Z,44.57
2023-02-02T20:21:59.082Z,51.60
2023-02-02T20:24:37.674Z,55.35
2023-02-02T20:27:10.426Z,39.00
2023-02-02T20:29:43.637Z,49.10
2023-02-02T20:32:26.809Z,48.25
2023-02-02T20:34:59.204Z,47.73
2023-02-02T20:37:31.346Z,47.98
2023-02-02T20:40:06.617Z,52.23
2023-02-02T20:42:36.376Z,43.55
2023-02-02T20:45:07.141Z,41.83
2023-02-02T20:47:36.545Z,44.27
2023-02-02T20:50:07.836Z,38.92
2023-02-02T20:52:37.384Z,44.75
2023-02-02T20:55:08.776Z,42.03
2023-02-02T20:57:39.055Z,38.87
2023-02-02T21:00:12.703Z,42.60
2023-02-02T21:02:42.240Z,54.20
2023-02-02T21:05:12.451Z,52.88
2023-02-02T21:07:42.117Z,51.63
2023-02-02T21:10:12.108Z,60.40
2023-02-02T21:12:41.490Z,59.10
2023-02-02T21:15:11.657Z,59.10
2023-02-02T21:17:41.081Z,52.67
2023-02-02T21:20:12.214Z,58.40
2023-02-02T21:22:41.610Z,47.17
2023-02-02T21:25:11.978Z,46.65
2023-02-02T21:27:42.448Z,36.23
2023-02-02T21:30:14.604Z,35.68
2023-02-02T21:32:44.358Z,42.50
2023-02-02T21:35:15.261Z,36.20
2023-02-02T21:37:47.233Z,40.85
2023-02-02T21:40:21.357Z,34.67
2023-02-02T21:42:51.243Z,35.50
2023-02-02T21:45:35.447Z,37.83
2023-02-02T21:48:07.871Z,46.85
2023-02-02T21:50:40.137Z,65.97
2023-02-02T21:53:24.723Z,69.45
2023-02-02T21:56:00.598Z,62.93
2023-02-02T21:58:42.444Z,53.48
2023-02-02T22:01:19.289Z,53.60
2023-02-02T22:03:50.708Z,43.98
2023-02-02T22:06:32.456Z,49.20
2023-02-02T22:09:13.868Z,42.13
2023-02-02T22:12:02.190Z,52.37
2023-02-02T22:14:39.775Z,45.78
2023-02-02T22:17:22.445Z,40.08
2023-02-02T22:20:03.862Z,37.28
2023-02-02T22:22:37.849Z,44.55
2023-02-02T22:25:20.943Z,54.93
2023-02-02T22:27:53.476Z,60.95
2023-02-02T22:30:40.969Z,66.57
2023-02-02T22:33:13.173Z,59.67
2023-02-02T22:35:43.761Z,47.27
2023-02-02T22:38:16.214Z,56.70
2023-02-02T22:40:47.219Z,58.40
2023-02-02T22:43:17.099Z,50.80
2023-02-02T22:45:47.980Z,45.60
2023-02-02T22:48:18.089Z,47.65
2023-02-02T22:50:48.254Z,55.48
2023-02-02T22:53:17.718Z,54.27
2023-02-02T22:55:47.136Z,54.35
2023-02-02T22:58:16.787Z,61.85
2023-02-02T23:00:46.736Z,51.18
2023-02-02T23:03:16.166Z,48.73
2023-02-02T23:05:45.678Z,46.35
2023-02-02T23:08:15.104Z,50.63
2023-02-02T23:10:44.513Z,62.67
2023-02-02T23:13:14.809Z,70.52
2023-02-02T23:15:44.304Z,67.08
2023-02-02T23:18:14.646Z,58.90
2023-02-02T23:20:45.677Z,54.00
2023-02-02T23:23:15.297Z,50.23
2023-02-02T23:25:44.713Z,45.70
2023-02-02T23:28:14.286Z,43.40
2023-02-02T23:30:44.456Z,45.85
2023-02-02T23:33:13.816Z,45.63
2023-02-02T23:35:43.247Z,38.23
2023-02-02T23:38:13.766Z,46.50
2023-02-02T23:40:43.227Z,37.93
2023-02-02T23:43:12.613Z,41.13
2023-02-02T23:45:42.707Z,37.67
2023-02-02T23:48:13.160Z,46.65
2023-02-02T23:50:43.781Z,39.17
2023-02-02T23:53:15.916Z,42.73
2023-02-02T23:55:45.938Z,39.48
2023-02-02T23:58:16.637Z,39.92
